Time;durP1;ratioP1;P1;durP2;ratioP2;P2;SDS_P1;SDS_P2;PMS_P1;PMS_P2;Temp;Humidity;BMP_temperature;BMP_pressure;BME280_temperature;BME280_humidity;BME280_pressure;Samples;Min_cycle;Max_cycle;Signal;HPM_P1;HPM_P2
2023/09/03 00:01:44;;;;;;;13.67;11.80;;;17.40;99.90;;;;;;5038690;28;20897;-55
2023/09/03 00:04:10;;;;;;;12.50;11.20;;;17.40;99.90;;;;;;5040567;28;20196;-57
2023/09/03 00:06:36;;;;;;;13.50;12.17;;;17.50;99.90;;;;;;5030547;28;20642;-54
2023/09/03 00:09:04;;;;;;;13.40;12.10;;;17.50;99.90;;;;;;5038223;28;20186;-55
2023/09/03 00:11:30;;;;;;;13.23;11.90;;;17.50;99.90;;;;;;5037637;28;20199;-55
2023/09/03 00:13:55;;;;;;;13.93;12.10;;;17.50;99.90;;;;;;5032245;28;20774;-52
2023/09/03 00:16:21;;;;;;;17.43;11.73;;;17.50;99.90;;;;;;5040616;28;20229;-57
2023/09/03 00:18:47;;;;;;;12.70;11.40;;;17.50;99.90;;;;;;5039607;28;20689;-54
2023/09/03 00:21:13;;;;;;;14.37;13.03;;;17.50;99.90;;;;;;5033255;28;21197;-57
2023/09/03 00:23:38;;;;;;;16.40;13.77;;;17.50;99.90;;;;;;5038746;28;20202;-57
2023/09/03 00:26:04;;;;;;;14.23;11.90;;;17.40;99.90;;;;;;5029494;28;20206;-59
2023/09/03 00:28:30;;;;;;;13.73;12.17;;;17.40;99.90;;;;;;5018958;28;20237;-56
2023/09/03 00:31:03;;;;;;;15.37;12.57;;;17.40;99.90;;;;;;5033882;28;20234;-55
2023/09/03 00:33:29;;;;;;;13.70;12.40;;;17.40;99.90;;;;;;5032646;28;20280;-55
2023/09/03 00:35:55;;;;;;;13.53;11.50;;;17.40;99.90;;;;;;5041524;28;20276;-54
2023/09/03 00:38:21;;;;;;;12.83;11.60;;;17.50;99.90;;;;;;5038061;28;20559;-54
2023/09/03 00:40:46;;;;;;;14.87;13.40;;;17.50;99.90;;;;;;5036865;28;20623;-54
2023/09/03 00:43:11;;;;;;;14.67;12.23;;;17.50;99.90;;;;;;5038140;28;20286;-55
2023/09/03 00:45:41;;;;;;;12.97;11.63;;;17.50;99.90;;;;;;5029972;28;20198;-62
2023/09/03 00:48:09;;;;;;;13.77;12.27;;;17.50;99.90;;;;;;5036460;28;20442;-57
2023/09/03 00:50:36;;;;;;;13.67;12.37;;;17.50;99.90;;;;;;5033848;28;20214;-57
2023/09/03 00:53:01;;;;;;;13.20;12.00;;;17.50;99.90;;;;;;5034643;28;20273;-61
2023/09/03 00:55:27;;;;;;;12.53;11.23;;;17.50;99.90;;;;;;5027318;28;20637;-55
2023/09/03 00:57:53;;;;;;;13.03;11.73;;;17.50;99.90;;;;;;5039069;28;20239;-57
2023/09/03 01:00:18;;;;;;;12.27;11.17;;;17.60;99.90;;;;;;5032392;28;20270;-56
2023/09/03 01:02:45;;;;;;;13.40;12.07;;;17.60;99.90;;;;;;5035425;28;20196;-55
2023/09/03 01:05:12;;;;;;;12.40;11.10;;;17.60;99.90;;;;;;5031792;28;20191;-56
2023/09/03 01:07:38;;;;;;;16.20;11.00;;;17.70;99.90;;;;;;5037524;28;20196;-56
2023/09/03 01:10:04;;;;;;;12.60;11.40;;;17.70;99.90;;;;;;5029268;28;20206;-55
2023/09/03 01:12:37;;;;;;;12.53;11.23;;;17.80;99.90;;;;;;5037973;28;20204;-55
2023/09/03 01:15:19;;;;;;;12.70;11.40;;;17.70;99.90;;;;;;5035472;28;20203;-55
2023/09/03 01:18:11;;;;;;;10.93;9.97;;;17.70;99.90;;;;;;5034841;28;20230;-55
2023/09/03 01:20:44;;;;;;;13.00;9.43;;;17.70;99.90;;;;;;5038574;28;20195;-55
2023/09/03 01:23:55;;;;;;;10.17;8.77;;;17.60;99.90;;;;;;5036706;28;20596;-55
2023/09/03 01:26:38;;;;;;;10.20;9.20;;;17.50;99.90;;;;;;5032981;28;20676;-56
2023/09/03 01:29:05;;;;;;;8.97;8.10;;;17.50;99.90;;;;;;5041025;28;20197;-55
2023/09/03 01:31:31;;;;;;;9.37;8.63;;;17.30;99.90;;;;;;5040455;28;20223;-54
2023/09/03 01:34:01;;;;;;;8.97;8.17;;;17.40;99.90;;;;;;5039142;28;20345;-54
2023/09/03 01:36:29;;;;;;;9.73;8.93;;;17.40;99.90;;;;;;5039528;28;20219;-54
2023/09/03 01:38:54;;;;;;;8.07;7.33;;;17.50;99.90;;;;;;5033887;28;20211;-54
2023/09/03 01:41:20;;;;;;;9.07;8.00;;;17.60;99.90;;;;;;5035349;28;20215;-54
2023/09/03 01:43:45;;;;;;;9.53;7.90;;;17.60;99.90;;;;;;5036305;28;20212;-54
2023/09/03 01:46:23;;;;;;;9.03;8.23;;;17.50;99.90;;;;;;5039288;28;20221;-55
2023/09/03 01:49:10;;;;;;;8.83;8.03;;;17.40;99.90;;;;;;5041460;28;20301;-54
2023/09/03 01:52:13;;;;;;;8.40;7.43;;;17.20;99.90;;;;;;5040497;28;20262;-56
2023/09/03 01:54:47;;;;;;;8.70;7.67;;;17.10;99.90;;;;;;5018733;28;20197;-55
2023/09/03 01:57:21;;;;;;;9.30;8.50;;;17.20;99.90;;;;;;5037231;28;20218;-55
2023/09/03 01:59:51;;;;;;;8.03;7.33;;;17.20;99.90;;;;;;5039116;28;20204;-55
2023/09/03 02:02:18;;;;;;;9.60;8.77;;;17.30;99.90;;;;;;5042938;28;20770;-54
2023/09/03 02:04:43;;;;;;;8.87;8.17;;;17.30;99.90;;;;;;5039134;28;20653;-55
2023/09/03 02:07:09;;;;;;;10.50;8.73;;;17.20;99.90;;;;;;5039325;28;20736;-56
2023/09/03 02:09:35;;;;;;;9.57;8.33;;;17.10;99.90;;;;;;5038852;28;20207;-55
2023/09/03 02:12:01;;;;;;;8.93;8.17;;;17.00;99.90;;;;;;5043075;28;20206;-56
2023/09/03 02:14:27;;;;;;;9.93;8.63;;;17.00;99.90;;;;;;5042549;28;20690;-56
2023/09/03 02:16:53;;;;;;;9.53;8.63;;;17.00;99.90;;;;;;5038879;28;20227;-56
2023/09/03 02:19:19;;;;;;;9.23;8.33;;;17.10;99.90;;;;;;5042365;28;20586;-57
2023/09/03 02:21:45;;;;;;;9.70;8.60;;;17.10;99.90;;;;;;5038503;28;20195;-56
2023/09/03 02:24:11;;;;;;;12.03;8.23;;;17.20;99.90;;;;;;5047024;28;20712;-57
2023/09/03 02:26:44;;;;;;;9.20;8.33;;;17.20;99.90;;;;;;5038698;28;20239;-57
2023/09/03 02:29:09;;;;;;;9.37;8.20;;;17.20;99.90;;;;;;5035919;28;20195;-56
2023/09/03 02:31:35;;;;;;;8.50;7.80;;;17.20;99.90;;;;;;5043061;28;20202;-56
2023/09/03 02:34:03;;;;;;;8.93;8.03;;;17.20;99.90;;;;;;5037384;28;20200;-58
2023/09/03 02:36:30;;;;;;;9.27;8.33;;;17.30;99.90;;;;;;5045546;28;20287;-54
2023/09/03 02:39:06;;;;;;;8.67;7.87;;;17.30;99.90;;;;;;5034552;28;20212;-54
2023/09/03 02:41:32;;;;;;;8.83;7.87;;;17.40;99.90;;;;;;5039306;28;20331;-55
2023/09/03 02:43:58;;;;;;;9.17;7.83;;;17.20;99.90;;;;;;5039836;28;20219;-54
2023/09/03 02:46:24;;;;;;;9.57;8.33;;;17.20;99.90;;;;;;5040514;28;20202;-55
2023/09/03 02:48:50;;;;;;;8.77;7.87;;;17.20;99.90;;;;;;5038638;28;20203;-55
2023/09/03 02:51:16;;;;;;;8.87;7.97;;;17.20;99.90;;;;;;5035706;28;20217;-56
2023/09/03 02:53:43;;;;;;;8.80;7.40;;;17.20;99.90;;;;;;5018564;28;20199;-55
2023/09/03 02:56:09;;;;;;;10.30;8.37;;;17.20;99.90;;;;;;5031667;28;20219;-55
2023/09/03 02:58:35;;;;;;;8.20;7.40;;;17.20;99.90;;;;;;5035664;28;20278;-55
2023/09/03 03:01:06;;;;;;;14.10;8.40;;;17.30;99.90;;;;;;5034616;28;20372;-55
2023/09/03 03:03:31;;;;;;;9.70;8.70;;;17.00;99.90;;;;;;5031173;28;20231;-55
2023/09/03 03:05:57;;;;;;;9.00;8.13;;;17.00;99.90;;;;;;5021135;28;20278;-55
2023/09/03 03:08:22;;;;;;;12.73;8.87;;;16.70;99.90;;;;;;5033676;28;20206;-55
2023/09/03 03:10:50;;;;;;;12.97;8.90;;;16.60;99.90;;;;;;5037538;28;20829;-55
2023/09/03 03:13:15;;;;;;;9.43;8.67;;;16.50;99.90;;;;;;5038653;28;20195;-55
2023/09/03 03:15:40;;;;;;;9.73;8.83;;;16.50;99.90;;;;;;5041285;28;20199;-55
2023/09/03 03:18:06;;;;;;;8.83;8.03;;;16.50;99.90;;;;;;5015809;28;20764;-56
2023/09/03 03:20:31;;;;;;;12.67;8.93;;;16.40;99.90;;;;;;5023580;28;20211;-56
2023/09/03 03:22:57;;;;;;;11.10;9.60;;;16.50;99.90;;;;;;5025561;28;20199;-55
2023/09/03 03:25:22;;;;;;;9.90;8.30;;;16.60;99.90;;;;;;5035379;28;20214;-56
2023/09/03 03:27:48;;;;;;;8.83;7.97;;;16.60;99.90;;;;;;5035281;28;20217;-56
2023/09/03 03:30:13;;;;;;;8.80;8.00;;;16.60;99.90;;;;;;5036879;28;20195;-56
2023/09/03 03:32:39;;;;;;;10.00;7.93;;;16.60;99.90;;;;;;5035187;28;20191;-55
2023/09/03 03:35:05;;;;;;;7.50;6.87;;;16.60;99.90;;;;;;5034466;28;20199;-56
2023/09/03 03:37:31;;;;;;;9.90;8.50;;;16.40;99.90;;;;;;5037200;28;20212;-55
2023/09/03 03:39:56;;;;;;;7.70;7.00;;;16.30;99.90;;;;;;5039100;28;20333;-55
2023/09/03 03:42:22;;;;;;;10.97;8.77;;;16.30;99.90;;;;;;5036730;28;20293;-54
2023/09/03 03:44:47;;;;;;;8.97;8.17;;;16.30;99.90;;;;;;5032775;28;20624;-54
2023/09/03 03:47:13;;;;;;;9.10;8.20;;;16.10;99.90;;;;;;5032383;28;20577;-54
2023/09/03 03:49:38;;;;;;;9.97;8.97;;;16.00;99.90;;;;;;5037785;28;20951;-54
2023/09/03 03:52:04;;;;;;;10.37;7.97;;;15.90;99.90;;;;;;5032539;28;20716;-62
2023/09/03 03:54:30;;;;;;;9.43;8.20;;;15.90;99.90;;;;;;5034232;28;20205;-58
2023/09/03 03:56:56;;;;;;;9.57;8.70;;;16.00;99.90;;;;;;5036988;28;20492;-58
2023/09/03 03:59:21;;;;;;;8.53;7.83;;;15.90;99.90;;;;;;5032242;28;20210;-53
2023/09/03 04:01:47;;;;;;;10.53;8.00;;;15.90;99.90;;;;;;5037000;28;20230;-53
2023/09/03 04:04:12;;;;;;;8.20;7.47;;;15.90;99.90;;;;;;5030669;28;20192;-54
2023/09/03 04:06:38;;;;;;;8.20;7.40;;;16.10;99.90;;;;;;5033720;28;20198;-56
2023/09/03 04:09:03;;;;;;;8.77;7.87;;;16.20;99.90;;;;;;5034033;28;20202;-54
2023/09/03 04:11:29;;;;;;;8.33;7.53;;;16.10;99.90;;;;;;5040427;28;20769;-53
2023/09/03 04:13:54;;;;;;;8.57;7.47;;;16.20;99.90;;;;;;5034538;28;20313;-54
2023/09/03 04:16:22;;;;;;;7.60;6.80;;;16.30;99.90;;;;;;5032760;28;20215;-54
2023/09/03 04:18:51;;;;;;;8.13;7.30;;;16.30;99.90;;;;;;5040039;28;20195;-55
2023/09/03 04:21:16;;;;;;;7.37;6.77;;;16.30;99.90;;;;;;5016918;28;20828;-55
2023/09/03 04:23:42;;;;;;;7.77;6.90;;;16.30;99.90;;;;;;5035039;28;20264;-55
2023/09/03 04:26:09;;;;;;;7.43;6.73;;;16.40;99.90;;;;;;5041737;28;20807;-55
2023/09/03 04:28:35;;;;;;;7.17;6.57;;;16.30;99.90;;;;;;5047890;28;20195;-54
2023/09/03 04:31:04;;;;;;;10.53;7.03;;;16.40;99.90;;;;;;5036733;28;20211;-54
2023/09/03 04:33:29;;;;;;;7.83;7.13;;;16.40;99.90;;;;;;5039325;28;20285;-55
2023/09/03 04:35:59;;;;;;;7.73;6.50;;;16.40;99.90;;;;;;5036660;28;20673;-54
2023/09/03 04:38:27;;;;;;;9.63;7.07;;;16.50;99.90;;;;;;5036485;28;20262;-54
2023/09/03 04:40:53;;;;;;;7.20;6.50;;;16.30;99.90;;;;;;5042291;28;20245;-54
2023/09/03 04:43:18;;;;;;;7.27;6.57;;;16.30;99.90;;;;;;5038443;28;20202;-54
2023/09/03 04:45:48;;;;;;;8.97;7.10;;;16.30;99.90;;;;;;5018258;28;20900;-53
2023/09/03 04:48:18;;;;;;;6.70;5.97;;;16.30;99.90;;;;;;5038374;28;20226;-53
2023/09/03 04:50:44;;;;;;;8.50;6.67;;;16.20;99.90;;;;;;5039796;28;20219;-53
2023/09/03 04:53:11;;;;;;;5.93;5.43;;;15.80;99.90;;;;;;5036797;28;20193;-53
2023/09/03 04:55:37;;;;;;;6.63;6.00;;;15.70;99.90;;;;;;5030958;28;20310;-54
2023/09/03 04:58:03;;;;;;;7.87;7.17;;;15.60;99.90;;;;;;5039941;28;20623;-53
2023/09/03 05:00:29;;;;;;;7.43;6.63;;;15.60;99.90;;;;;;5034991;28;20618;-53
2023/09/03 05:02:55;;;;;;;6.97;6.37;;;15.40;99.90;;;;;;5040171;28;20209;-53
2023/09/03 05:05:21;;;;;;;7.37;6.67;;;15.30;99.90;;;;;;5036001;28;20198;-53
2023/09/03 05:07:47;;;;;;;7.27;6.33;;;15.40;99.90;;;;;;5035798;28;20665;-53
2023/09/03 05:10:13;;;;;;;8.67;7.20;;;15.50;99.90;;;;;;5041485;28;20217;-54
2023/09/03 05:12:42;;;;;;;6.57;5.97;;;15.40;99.90;;;;;;5019015;28;20993;-54
2023/09/03 05:15:08;;;;;;;7.50;6.80;;;15.40;99.90;;;;;;5019426;28;20205;-54
2023/09/03 05:17:34;;;;;;;7.37;6.67;;;15.40;99.90;;;;;;5031083;28;20886;-54
2023/09/03 05:19:59;;;;;;;6.77;6.17;;;15.60;99.90;;;;;;5028585;28;20249;-54
2023/09/03 05:22:25;;;;;;;6.83;6.07;;;15.70;99.90;;;;;;5033851;28;20608;-53
2023/09/03 05:24:50;;;;;;;7.23;5.90;;;15.70;99.90;;;;;;5035894;28;20213;-53
2023/09/03 05:27:16;;;;;;;6.60;5.80;;;15.60;99.90;;;;;;5036663;28;20203;-54
2023/09/03 05:29:41;;;;;;;7.17;6.47;;;15.70;99.90;;;;;;5034639;28;20220;-61
2023/09/03 05:32:07;;;;;;;6.07;5.63;;;15.80;99.90;;;;;;5040233;28;20700;-56
2023/09/03 05:34:33;;;;;;;6.50;5.73;;;15.80;99.90;;;;;;5036850;28;20203;-56
2023/09/03 05:36:58;;;;;;;6.57;5.87;;;15.90;99.90;;;;;;5017671;28;20285;-56
2023/09/03 05:39:25;;;;;;;6.50;5.90;;;15.60;99.90;;;;;;5033588;28;20195;-53
2023/09/03 05:41:50;;;;;;;7.00;6.03;;;15.50;99.90;;;;;;5037427;28;20207;-53
2023/09/03 05:44:16;;;;;;;7.53;6.80;;;15.50;99.90;;;;;;5028323;28;20263;-54
2023/09/03 05:46:43;;;;;;;6.23;5.63;;;15.50;99.90;;;;;;5030282;28;20218;-53
2023/09/03 05:49:08;;;;;;;6.37;5.43;;;15.50;99.90;;;;;;5016426;28;20205;-54
2023/09/03 05:51:34;;;;;;;6.80;5.57;;;15.60;99.90;;;;;;5029731;28;20207;-53
2023/09/03 05:54:00;;;;;;;7.27;5.43;;;15.60;99.90;;;;;;5034331;28;20202;-54
2023/09/03 05:56:25;;;;;;;6.20;5.20;;;15.60;99.90;;;;;;5035824;28;20273;-53
2023/09/03 05:58:50;;;;;;;5.03;4.63;;;15.70;99.90;;;;;;5038145;28;20206;-54
2023/09/03 06:01:16;;;;;;;6.10;5.27;;;15.80;99.90;;;;;;5035873;28;20210;-55
2023/09/03 06:03:42;;;;;;;7.50;5.40;;;15.80;99.90;;;;;;5038751;28;20207;-54
2023/09/03 06:06:09;;;;;;;6.10;5.00;;;15.90;99.90;;;;;;5017702;28;20195;-54
2023/09/03 06:08:36;;;;;;;6.30;4.97;;;15.90;99.90;;;;;;5036293;28;20198;-54
2023/09/03 06:11:02;;;;;;;6.13;5.57;;;16.00;99.90;;;;;;5035230;28;20673;-54
2023/09/03 06:13:29;;;;;;;5.90;5.40;;;16.00;99.90;;;;;;5041597;28;20284;-54
2023/09/03 06:15:55;;;;;;;5.93;5.37;;;16.10;99.90;;;;;;5036906;28;21056;-54
2023/09/03 06:18:21;;;;;;;5.00;4.57;;;16.10;99.90;;;;;;5038266;28;20223;-54
2023/09/03 06:20:47;;;;;;;5.70;5.07;;;16.10;99.90;;;;;;5019331;28;20902;-53
2023/09/03 06:23:18;;;;;;;7.40;5.60;;;16.20;99.90;;;;;;5038083;28;20281;-53
2023/09/03 06:25:45;;;;;;;4.80;4.30;;;16.30;99.90;;;;;;5038731;28;20199;-54
2023/09/03 06:28:11;;;;;;;4.87;4.30;;;16.20;99.90;;;;;;5039087;28;20195;-54
2023/09/03 06:30:36;;;;;;;4.30;3.90;;;16.20;99.90;;;;;;5038098;28;20224;-53
2023/09/03 06:33:02;;;;;;;4.37;3.97;;;16.10;99.90;;;;;;5035217;28;20264;-53
2023/09/03 06:35:28;;;;;;;5.40;4.90;;;16.10;99.90;;;;;;5046856;28;20201;-53
2023/09/03 06:37:55;;;;;;;4.67;4.27;;;16.10;99.90;;;;;;5034475;28;20230;-53
2023/09/03 06:40:21;;;;;;;5.70;4.27;;;16.10;99.90;;;;;;5036952;28;20202;-53
2023/09/03 06:42:47;;;;;;;5.43;4.60;;;16.00;99.90;;;;;;5042701;28;20232;-52
2023/09/03 06:45:12;;;;;;;5.90;4.00;;;16.00;99.90;;;;;;5035725;28;20286;-53
2023/09/03 06:47:39;;;;;;;6.33;3.93;;;15.90;99.90;;;;;;5023898;28;20237;-55
2023/09/03 06:50:06;;;;;;;4.27;3.87;;;15.90;99.90;;;;;;5034458;28;20230;-56
2023/09/03 06:52:32;;;;;;;3.97;3.47;;;15.80;99.90;;;;;;5041522;28;20603;-53
2023/09/03 06:54:57;;;;;;;4.20;3.80;;;15.90;99.90;;;;;;5038504;28;20206;-60
2023/09/03 06:57:24;;;;;;;4.37;3.23;;;16.00;99.90;;;;;;5022057;28;20230;-57
2023/09/03 06:59:49;;;;;;;6.20;3.70;;;16.00;99.90;;;;;;5037145;28;20191;-56
2023/09/03 07:02:15;;;;;;;3.47;3.27;;;16.10;99.90;;;;;;5036269;28;20203;-56
2023/09/03 07:04:40;;;;;;;5.33;3.57;;;16.00;99.90;;;;;;5037593;28;20674;-55
2023/09/03 07:07:06;;;;;;;5.27;3.47;;;16.00;99.90;;;;;;5039445;28;20211;-55
2023/09/03 07:09:32;;;;;;;3.73;3.03;;;16.10;99.90;;;;;;5019134;28;20294;-56
2023/09/03 07:11:59;;;;;;;3.00;2.80;;;16.20;99.90;;;;;;5037662;28;20207;-56
2023/09/03 07:14:25;;;;;;;5.03;3.00;;;16.20;99.90;;;;;;5024333;28;20539;-56
2023/09/03 07:16:51;;;;;;;3.20;2.83;;;16.30;99.90;;;;;;5042767;28;20285;-54
2023/09/03 07:19:17;;;;;;;4.10;3.10;;;16.40;99.90;;;;;;5036616;28;20211;-56
2023/09/03 07:21:42;;;;;;;3.47;2.90;;;16.30;99.90;;;;;;5041093;28;20210;-57
2023/09/03 07:24:08;;;;;;;2.70;2.50;;;16.40;99.90;;;;;;5044946;28;20248;-54
2023/09/03 07:26:33;;;;;;;5.87;2.80;;;16.50;99.90;;;;;;5036097;28;20207;-53
2023/09/03 07:28:58;;;;;;;4.80;3.93;;;16.60;99.90;;;;;;5028282;28;20207;-54
2023/09/03 07:31:24;;;;;;;4.83;2.83;;;16.60;99.90;;;;;;5030123;28;20206;-54
2023/09/03 07:33:49;;;;;;;2.80;2.60;;;16.40;99.90;;;;;;5040039;28;20647;-54
2023/09/03 07:36:15;;;;;;;3.67;3.20;;;16.50;99.90;;;;;;5037076;28;20881;-54
2023/09/03 07:38:41;;;;;;;5.00;2.77;;;16.40;99.90;;;;;;5041827;28;20559;-55
2023/09/03 07:41:06;;;;;;;4.20;2.97;;;16.40;99.90;;;;;;5037328;28;20614;-55
2023/09/03 07:43:33;;;;;;;2.67;2.43;;;16.60;99.90;;;;;;5043010;28;20577;-56
2023/09/03 07:45:58;;;;;;;3.17;2.67;;;16.60;99.90;;;;;;5035059;28;20599;-55
2023/09/03 07:48:24;;;;;;;7.33;3.00;;;16.70;99.90;;;;;;5036836;28;20696;-61
2023/09/03 07:50:49;;;;;;;3.40;2.30;;;16.70;99.90;;;;;;5030024;28;20219;-60
2023/09/03 07:53:15;;;;;;;7.47;3.07;;;16.90;99.90;;;;;;5037380;28;20619;-62
2023/09/03 07:55:40;;;;;;;4.70;3.17;;;16.90;99.90;;;;;;5035632;28;20964;-62
2023/09/03 07:58:06;;;;;;;3.73;3.00;;;16.90;99.90;;;;;;5037411;28;20222;-61
2023/09/03 08:00:32;;;;;;;3.10;2.47;;;16.90;99.90;;;;;;5036608;28;20206;-53
2023/09/03 08:02:57;;;;;;;3.67;2.47;;;17.10;99.90;;;;;;5040737;28;20208;-54
2023/09/03 08:05:23;;;;;;;4.07;2.23;;;17.30;99.90;;;;;;5032794;28;20234;-54
2023/09/03 08:07:50;;;;;;;4.57;2.17;;;17.30;99.90;;;;;;5037910;28;20208;-62
2023/09/03 08:10:15;;;;;;;4.53;2.90;;;17.10;99.90;;;;;;5040473;28;20271;-56
2023/09/03 08:12:41;;;;;;;2.40;2.17;;;17.10;99.90;;;;;;5028412;28;20763;-55
2023/09/03 08:15:07;;;;;;;4.53;2.00;;;17.10;99.90;;;;;;5039182;28;20712;-56
2023/09/03 08:17:33;;;;;;;3.13;2.23;;;17.00;99.90;;;;;;5037097;28;20287;-56
2023/09/03 08:19:58;;;;;;;3.60;2.30;;;17.10;99.90;;;;;;5033262;28;20211;-56
2023/09/03 08:22:24;;;;;;;3.50;2.33;;;17.20;99.90;;;;;;5034759;28;20282;-56
2023/09/03 08:24:49;;;;;;;2.00;1.77;;;17.30;99.90;;;;;;5038183;28;20212;-57
2023/09/03 08:27:15;;;;;;;4.67;1.93;;;17.40;99.90;;;;;;5032753;28;20677;-59
2023/09/03 08:29:41;;;;;;;3.73;2.00;;;17.30;99.90;;;;;;5018147;28;20207;-56
2023/09/03 08:32:07;;;;;;;2.17;1.60;;;17.30;99.90;;;;;;5036715;28;20203;-54
2023/09/03 08:34:32;;;;;;;2.80;1.50;;;17.40;99.90;;;;;;5036330;28;20261;-52
2023/09/03 08:36:57;;;;;;;3.30;2.37;;;17.50;99.90;;;;;;5035671;28;20217;-53
2023/09/03 08:39:23;;;;;;;2.13;1.93;;;17.60;99.90;;;;;;5036151;28;20221;-52
2023/09/03 08:41:50;;;;;;;2.73;2.03;;;17.60;99.90;;;;;;5025714;28;20729;-52
2023/09/03 08:44:29;;;;;;;2.57;1.80;;;17.70;99.90;;;;;;5031899;28;20724;-52
2023/09/03 08:46:59;;;;;;;4.13;1.87;;;17.80;99.90;;;;;;5034236;28;20559;-52
2023/09/03 08:49:31;;;;;;;2.80;2.00;;;17.80;99.90;;;;;;5036215;28;20758;-59
2023/09/03 08:52:00;;;;;;;3.33;2.10;;;17.70;99.90;;;;;;5018937;28;20215;-58
2023/09/03 08:54:26;;;;;;;2.53;2.33;;;17.70;99.90;;;;;;5033661;28;20199;-58
2023/09/03 08:56:52;;;;;;;2.17;1.60;;;17.70;99.90;;;;;;5036298;28;20220;-58
2023/09/03 08:59:18;;;;;;;4.20;3.77;;;17.90;99.90;;;;;;5035651;28;20209;-57
2023/09/03 09:01:54;;;;;;;1.90;1.70;;;17.90;99.90;;;;;;5035548;28;20733;-53
2023/09/03 09:04:21;;;;;;;4.60;2.00;;;18.00;99.90;;;;;;5034985;28;20237;-53
2023/09/03 09:06:48;;;;;;;3.67;1.30;;;18.00;99.90;;;;;;5037445;28;20203;-53
2023/09/03 09:09:15;;;;;;;3.80;2.17;;;18.10;99.90;;;;;;5033975;28;20594;-55
2023/09/03 09:11:49;;;;;;;4.90;1.83;;;18.30;99.90;;;;;;5033023;28;20295;-55
2023/09/03 09:14:27;;;;;;;2.10;1.53;;;18.40;99.90;;;;;;5030418;28;20227;-52
2023/09/03 09:16:53;;;;;;;4.63;1.57;;;18.40;99.90;;;;;;5036291;28;20315;-53
2023/09/03 09:19:18;;;;;;;3.13;1.47;;;18.40;99.90;;;;;;5033789;28;20283;-54
2023/09/03 09:21:44;;;;;;;1.57;1.30;;;18.40;99.90;;;;;;5020348;28;20212;-53
2023/09/03 09:24:11;;;;;;;3.77;1.33;;;18.40;99.90;;;;;;5033600;28;20205;-52
2023/09/03 09:26:38;;;;;;;4.07;1.60;;;18.50;99.90;;;;;;5032446;28;20742;-55
2023/09/03 09:29:04;;;;;;;3.50;1.40;;;18.50;99.90;;;;;;5035758;28;20894;-53
2023/09/03 09:31:32;;;;;;;1.30;1.20;;;18.40;99.90;;;;;;5037618;28;20199;-55
2023/09/03 09:33:59;;;;;;;1.57;1.33;;;18.50;99.90;;;;;;5033666;28;20193;-58
2023/09/03 09:36:26;;;;;;;1.33;1.20;;;18.50;99.90;;;;;;5039163;28;20242;-60
2023/09/03 09:38:51;;;;;;;2.37;1.20;;;18.50;99.90;;;;;;5029767;28;20216;-56
2023/09/03 09:41:27;;;;;;;6.23;1.43;;;18.50;99.90;;;;;;5016302;28;20199;-56
2023/09/03 09:43:53;;;;;;;1.57;1.27;;;18.50;99.90;;;;;;5033421;28;20245;-56
2023/09/03 09:46:26;;;;;;;1.90;1.80;;;18.60;99.90;;;;;;5034862;28;20191;-55
2023/09/03 09:48:59;;;;;;;1.73;1.63;;;18.60;99.90;;;;;;5034781;28;20674;-55
2023/09/03 09:51:27;;;;;;;2.93;1.33;;;18.70;99.90;;;;;;5037909;28;20214;-55
2023/09/03 09:53:57;;;;;;;3.77;1.47;;;18.80;99.90;;;;;;5039721;28;20698;-58
2023/09/03 09:56:27;;;;;;;2.33;1.30;;;19.00;99.90;;;;;;5026692;28;20602;-53
2023/09/03 09:58:53;;;;;;;1.63;1.53;;;19.00;99.90;;;;;;5022596;28;20217;-53
2023/09/03 10:01:18;;;;;;;3.80;1.40;;;19.10;99.90;;;;;;5042844;28;20262;-54
2023/09/03 10:03:47;;;;;;;3.47;1.57;;;19.30;99.90;;;;;;5042400;28;20838;-54
2023/09/03 10:06:14;;;;;;;1.40;1.30;;;19.20;99.90;;;;;;5039058;28;20212;-52
2023/09/03 10:08:41;;;;;;;2.13;1.07;;;19.00;99.90;;;;;;5042388;28;20207;-53
2023/09/03 10:11:07;;;;;;;3.00;1.37;;;18.90;99.90;;;;;;5044045;28;20201;-53
2023/09/03 10:13:32;;;;;;;2.60;1.57;;;18.80;99.90;;;;;;5049663;28;20250;-53
2023/09/03 10:16:02;;;;;;;4.57;1.80;;;18.90;99.90;;;;;;5036347;28;20590;-60
2023/09/03 10:18:28;;;;;;;3.33;1.30;;;19.00;99.90;;;;;;5037182;28;20219;-55
2023/09/03 10:20:56;;;;;;;1.40;1.30;;;19.10;99.90;;;;;;5038954;28;20200;-55
2023/09/03 10:23:25;;;;;;;2.70;1.30;;;19.30;99.90;;;;;;5035145;28;20210;-55
2023/09/03 10:25:51;;;;;;;2.47;1.70;;;19.40;99.90;;;;;;5037576;28;20210;-56
2023/09/03 10:28:22;;;;;;;1.80;1.30;;;19.50;99.90;;;;;;5038513;28;20215;-56
2023/09/03 10:30:51;;;;;;;1.90;1.60;;;19.40;99.90;;;;;;5042256;28;20212;-56
2023/09/03 10:33:17;;;;;;;7.37;2.13;;;19.40;99.90;;;;;;5037295;28;20307;-56
2023/09/03 10:36:21;;;;;;;3.63;1.60;;;19.60;99.90;;;;;;5039740;28;20283;-57
2023/09/03 10:38:47;;;;;;;1.70;1.30;;;19.50;99.90;;;;;;4964867;28;20224;-62
2023/09/03 10:41:21;;;;;;;10.10;2.63;;;19.60;99.90;;;;;;4947272;28;20204;-61
2023/09/03 10:43:49;;;;;;;4.47;1.53;;;19.60;99.90;;;;;;4997678;28;20240;-61
2023/09/03 10:46:15;;;;;;;4.13;1.53;;;19.50;99.90;;;;;;5038750;28;20284;-63
2023/09/03 10:48:51;;;;;;;3.57;1.50;;;19.40;99.90;;;;;;5035685;28;20229;-63
2023/09/03 10:51:32;;;;;;;2.47;1.60;;;19.40;99.90;;;;;;5037300;28;20592;-60
2023/09/03 10:54:24;;;;;;;4.47;1.50;;;19.40;99.90;;;;;;5020569;28;20663;-55
2023/09/03 10:57:14;;;;;;;6.83;2.27;;;19.70;99.90;;;;;;5038161;28;20299;-56
2023/09/03 10:59:57;;;;;;;3.10;1.20;;;19.80;99.90;;;;;;5014772;28;20228;-65
2023/09/03 11:02:27;;;;;;;2.10;1.53;;;19.70;99.90;;;;;;5037116;28;20209;-53
2023/09/03 11:05:10;;;;;;;3.47;1.20;;;19.70;99.90;;;;;;5034234;28;20655;-54
2023/09/03 11:07:35;;;;;;;3.63;1.80;;;19.80;99.90;;;;;;5034122;28;20215;-54
2023/09/03 11:10:20;;;;;;;2.07;1.30;;;19.90;99.90;;;;;;5031410;28;20206;-52
2023/09/03 11:12:46;;;;;;;3.40;1.70;;;19.90;99.90;;;;;;5012153;28;21160;-53
2023/09/03 11:15:12;;;;;;;3.47;1.73;;;20.00;99.90;;;;;;5036852;28;20259;-59
2023/09/03 11:17:38;;;;;;;2.50;1.30;;;20.30;99.90;;;;;;5039629;28;20218;-53
2023/09/03 11:20:04;;;;;;;4.30;1.67;;;20.60;99.90;;;;;;5038873;28;20202;-53
2023/09/03 11:22:36;;;;;;;1.63;1.53;;;20.70;99.90;;;;;;5041124;28;20208;-56
2023/09/03 11:25:02;;;;;;;1.63;1.20;;;20.70;99.90;;;;;;5033791;28;20334;-54
2023/09/03 11:27:28;;;;;;;1.63;1.53;;;21.00;99.90;;;;;;5038325;28;20238;-55
2023/09/03 11:30:07;;;;;;;2.30;1.80;;;21.00;99.90;;;;;;5034956;28;20222;-56
2023/09/03 11:32:37;;;;;;;2.67;1.27;;;21.10;99.90;;;;;;5025190;28;20205;-57
2023/09/03 11:35:02;;;;;;;2.20;1.67;;;21.10;99.90;;;;;;5033195;28;20203;-60
2023/09/03 11:37:28;;;;;;;3.10;1.80;;;21.20;99.90;;;;;;5040065;28;20226;-57
2023/09/03 11:39:53;;;;;;;1.20;1.10;;;21.30;99.90;;;;;;5031517;28;20318;-56
2023/09/03 11:42:19;;;;;;;2.70;1.63;;;21.50;99.60;;;;;;5031606;28;20213;-61
2023/09/03 11:44:50;;;;;;;1.40;1.30;;;21.50;99.90;;;;;;5041336;28;20199;-64
2023/09/03 11:47:16;;;;;;;4.83;1.57;;;21.40;99.90;;;;;;5029210;28;20229;-64
2023/09/03 11:49:45;;;;;;;1.73;1.30;;;21.40;98.80;;;;;;5033236;28;20203;-65
2023/09/03 11:52:11;;;;;;;5.85;5.28;;;21.30;98.60;;;;;;5028582;28;20333;-54
2023/09/03 11:54:37;;;;;;;1.50;1.40;;;21.30;99.60;;;;;;5032729;28;20656;-56
2023/09/03 11:57:04;;;;;;;1.53;1.10;;;21.40;98.20;;;;;;5034602;28;20222;-54
2023/09/03 11:59:30;;;;;;;1.00;0.90;;;21.70;97.70;;;;;;5037207;28;20194;-55
2023/09/03 12:01:56;;;;;;;2.13;1.50;;;21.70;98.50;;;;;;5039429;28;20267;-54
2023/09/03 12:04:22;;;;;;;1.50;1.30;;;21.60;97.80;;;;;;5033601;28;20388;-54
2023/09/03 12:06:47;;;;;;;2.30;1.53;;;21.80;97.60;;;;;;5039707;28;20694;-53
2023/09/03 12:09:13;;;;;;;4.50;1.58;;;21.20;98.30;;;;;;5028267;28;20206;-54
2023/09/03 12:11:39;;;;;;;2.13;1.23;;;21.10;98.80;;;;;;5028396;28;20922;-54
2023/09/03 12:14:09;;;;;;;1.87;1.10;;;21.40;98.10;;;;;;5030083;28;20194;-56
2023/09/03 12:16:48;;;;;;;1.10;1.10;;;21.80;98.10;;;;;;5025725;28;20238;-64
2023/09/03 12:19:13;;;;;;;3.45;1.67;;;21.90;97.50;;;;;;5035994;28;20199;-64
2023/09/03 12:21:43;;;;;;;1.20;1.10;;;22.10;98.00;;;;;;5030186;28;20195;-63
2023/09/03 12:24:08;;;;;;;4.70;2.83;;;22.40;97.10;;;;;;5012548;28;20203;-63
2023/09/03 12:26:35;;;;;;;1.83;1.60;;;22.30;98.50;;;;;;5046004;28;20215;-57
2023/09/03 12:29:03;;;;;;;3.40;1.50;;;22.30;98.00;;;;;;5032315;28;20295;-57
2023/09/03 12:31:43;;;;;;;1.17;1.10;;;21.90;97.70;;;;;;5011008;28;20210;-57
2023/09/03 12:34:09;;;;;;;1.58;1.48;;;21.80;97.80;;;;;;5030305;28;20676;-58
2023/09/03 12:36:53;;;;;;;1.98;1.70;;;21.70;97.50;;;;;;5040227;28;20260;-57
2023/09/03 12:39:36;;;;;;;2.78;1.30;;;22.00;98.00;;;;;;5036581;28;20203;-57
2023/09/03 12:42:05;;;;;;;2.90;1.67;;;22.40;96.90;;;;;;5028283;28;20622;-57
2023/09/03 12:44:31;;;;;;;3.67;1.40;;;22.70;95.70;;;;;;5038434;28;20311;-56
2023/09/03 12:46:57;;;;;;;2.45;1.40;;;23.20;93.80;;;;;;5037230;28;20552;-55